sensor_id;sensor_type;location;lat;lon;timestamp;P1;durP1;ratioP1;P2;durP2;ratioP2
64907;SDS011;69061;52.236;5.188;2023-12-14T00:02:10;18.27;;;11.25;;
64907;SDS011;69061;52.236;5.188;2023-12-14T00:04:40;17.75;;;11.98;;
64907;SDS011;69061;52.236;5.188;2023-12-14T00:07:06;21.33;;;12.60;;
64907;SDS011;69061;52.236;5.188;2023-12-14T00:09:33;17.27;;;11.10;;
64907;SDS011;69061;52.236;5.188;2023-12-14T00:11:59;15.60;;;10.27;;
64907;SDS011;69061;52.236;5.188;2023-12-14T00:14:26;22.10;;;12.82;;
64907;SDS011;69061;52.236;5.188;2023-12-14T00:16:53;21.48;;;12.15;;
64907;SDS011;69061;52.236;5.188;2023-12-14T00:19:19;27.90;;;14.40;;
64907;SDS011;69061;52.236;5.188;2023-12-14T00:21:47;21.95;;;11.95;;
64907;SDS011;69061;52.236;5.188;2023-12-14T00:24:14;22.10;;;11.93;;
64907;SDS011;69061;52.236;5.188;2023-12-14T00:26:40;21.35;;;11.07;;
64907;SDS011;69061;52.236;5.188;2023-12-14T00:29:08;20.55;;;12.35;;
64907;SDS011;69061;52.236;5.188;2023-12-14T00:31:35;25.73;;;13.75;;
64907;SDS011;69061;52.236;5.188;2023-12-14T00:34:00;21.38;;;12.32;;
64907;SDS011;69061;52.236;5.188;2023-12-14T00:36:28;22.42;;;12.95;;
64907;SDS011;69061;52.236;5.188;2023-12-14T00:38:56;26.02;;;12.20;;
64907;SDS011;69061;52.236;5.188;2023-12-14T00:41:23;24.17;;;12.75;;
64907;SDS011;69061;52.236;5.188;2023-12-14T00:43:49;21.23;;;12.85;;
64907;SDS011;69061;52.236;5.188;2023-12-14T00:46:16;26.70;;;12.98;;
64907;SDS011;69061;52.236;5.188;2023-12-14T00:48:42;22.00;;;11.85;;
64907;SDS011;69061;52.236;5.188;2023-12-14T00:51:09;35.25;;;11.80;;
64907;SDS011;69061;52.236;5.188;2023-12-14T00:53:35;23.35;;;11.52;;
64907;SDS011;69061;52.236;5.188;2023-12-14T00:56:06;23.98;;;12.02;;
64907;SDS011;69061;52.236;5.188;2023-12-14T00:58:34;23.20;;;10.80;;
64907;SDS011;69061;52.236;5.188;2023-12-14T01:01:00;24.58;;;10.90;;
64907;SDS011;69061;52.236;5.188;2023-12-14T01:03:27;19.80;;;11.43;;
64907;SDS011;69061;52.236;5.188;2023-12-14T01:05:54;24.17;;;13.52;;
64907;SDS011;69061;52.236;5.188;2023-12-14T01:08:20;24.73;;;12.38;;
64907;SDS011;69061;52.236;5.188;2023-12-14T01:10:47;21.13;;;11.60;;
64907;SDS011;69061;52.236;5.188;2023-12-14T01:13:15;18.25;;;11.15;;
64907;SDS011;69061;52.236;5.188;2023-12-14T01:15:41;25.15;;;12.05;;
64907;SDS011;69061;52.236;5.188;2023-12-14T01:18:08;22.23;;;12.05;;
64907;SDS011;69061;52.236;5.188;2023-12-14T01:20:35;20.40;;;11.50;;
64907;SDS011;69061;52.236;5.188;2023-12-14T01:23:02;21.77;;;11.85;;
64907;SDS011;69061;52.236;5.188;2023-12-14T01:25:29;22.52;;;12.88;;
64907;SDS011;69061;52.236;5.188;2023-12-14T01:27:56;21.73;;;12.63;;
64907;SDS011;69061;52.236;5.188;2023-12-14T01:30:26;18.35;;;10.27;;
64907;SDS011;69061;52.236;5.188;2023-12-14T01:32:54;20.30;;;11.38;;
64907;SDS011;69061;52.236;5.188;2023-12-14T01:35:21;25.45;;;12.18;;
64907;SDS011;69061;52.236;5.188;2023-12-14T01:37:47;22.70;;;12.30;;
64907;SDS011;69061;52.236;5.188;2023-12-14T01:40:14;24.33;;;12.73;;
64907;SDS011;69061;52.236;5.188;2023-12-14T01:42:44;23.25;;;14.38;;
64907;SDS011;69061;52.236;5.188;2023-12-14T01:45:11;20.90;;;13.07;;
64907;SDS011;69061;52.236;5.188;2023-12-14T01:47:42;19.75;;;13.32;;
64907;SDS011;69061;52.236;5.188;2023-12-14T01:50:10;20.40;;;11.73;;
64907;SDS011;69061;52.236;5.188;2023-12-14T01:52:36;22.88;;;12.90;;
64907;SDS011;69061;52.236;5.188;2023-12-14T01:55:03;31.40;;;15.30;;
64907;SDS011;69061;52.236;5.188;2023-12-14T01:57:30;24.30;;;13.13;;
64907;SDS011;69061;52.236;5.188;2023-12-14T01:59:57;27.65;;;13.82;;
64907;SDS011;69061;52.236;5.188;2023-12-14T02:02:24;25.40;;;13.52;;
64907;SDS011;69061;52.236;5.188;2023-12-14T02:04:52;27.02;;;13.70;;
64907;SDS011;69061;52.236;5.188;2023-12-14T02:07:19;25.15;;;14.13;;
64907;SDS011;69061;52.236;5.188;2023-12-14T02:09:46;20.77;;;11.10;;
64907;SDS011;69061;52.236;5.188;2023-12-14T02:12:12;22.10;;;12.10;;
64907;SDS011;69061;52.236;5.188;2023-12-14T02:14:39;24.13;;;13.38;;
64907;SDS011;69061;52.236;5.188;2023-12-14T02:17:06;27.48;;;15.90;;
64907;SDS011;69061;52.236;5.188;2023-12-14T02:19:32;25.95;;;13.13;;
64907;SDS011;69061;52.236;5.188;2023-12-14T02:22:00;25.75;;;13.50;;
64907;SDS011;69061;52.236;5.188;2023-12-14T02:24:28;22.77;;;13.75;;
64907;SDS011;69061;52.236;5.188;2023-12-14T02:26:55;26.17;;;13.20;;
64907;SDS011;69061;52.236;5.188;2023-12-14T02:29:22;25.58;;;14.30;;
64907;SDS011;69061;52.236;5.188;2023-12-14T02:31:49;26.20;;;12.50;;
64907;SDS011;69061;52.236;5.188;2023-12-14T02:34:17;24.48;;;13.27;;
64907;SDS011;69061;52.236;5.188;2023-12-14T02:36:45;23.30;;;12.88;;
64907;SDS011;69061;52.236;5.188;2023-12-14T02:39:12;25.15;;;13.05;;
64907;SDS011;69061;52.236;5.188;2023-12-14T02:41:40;24.95;;;12.80;;
64907;SDS011;69061;52.236;5.188;2023-12-14T02:44:06;25.60;;;13.63;;
64907;SDS011;69061;52.236;5.188;2023-12-14T02:46:33;19.58;;;11.10;;
64907;SDS011;69061;52.236;5.188;2023-12-14T02:48:59;23.92;;;11.98;;
64907;SDS011;69061;52.236;5.188;2023-12-14T02:51:26;21.88;;;12.40;;
64907;SDS011;69061;52.236;5.188;2023-12-14T02:53:52;23.40;;;11.63;;
64907;SDS011;69061;52.236;5.188;2023-12-14T02:56:22;25.10;;;13.05;;
64907;SDS011;69061;52.236;5.188;2023-12-14T02:58:50;27.55;;;12.88;;
64907;SDS011;69061;52.236;5.188;2023-12-14T03:01:18;23.23;;;11.88;;
64907;SDS011;69061;52.236;5.188;2023-12-14T03:03:46;21.17;;;11.73;;
64907;SDS011;69061;52.236;5.188;2023-12-14T03:06:14;22.02;;;11.65;;
64907;SDS011;69061;52.236;5.188;2023-12-14T03:08:41;21.73;;;11.95;;
64907;SDS011;69061;52.236;5.188;2023-12-14T03:11:07;20.80;;;11.52;;
64907;SDS011;69061;52.236;5.188;2023-12-14T03:13:34;27.90;;;12.43;;
64907;SDS011;69061;52.236;5.188;2023-12-14T03:16:02;24.67;;;10.55;;
64907;SDS011;69061;52.236;5.188;2023-12-14T03:18:29;21.77;;;10.77;;
64907;SDS011;69061;52.236;5.188;2023-12-14T03:20:55;31.67;;;12.48;;
64907;SDS011;69061;52.236;5.188;2023-12-14T03:23:22;26.10;;;10.73;;
64907;SDS011;69061;52.236;5.188;2023-12-14T03:25:50;23.23;;;10.45;;
64907;SDS011;69061;52.236;5.188;2023-12-14T03:28:16;23.75;;;11.45;;
64907;SDS011;69061;52.236;5.188;2023-12-14T03:30:43;19.70;;;11.32;;
64907;SDS011;69061;52.236;5.188;2023-12-14T03:33:13;25.38;;;11.75;;
64907;SDS011;69061;52.236;5.188;2023-12-14T03:35:39;20.90;;;9.63;;
64907;SDS011;69061;52.236;5.188;2023-12-14T03:38:07;20.27;;;9.80;;
64907;SDS011;69061;52.236;5.188;2023-12-14T03:40:33;17.50;;;10.43;;
64907;SDS011;69061;52.236;5.188;2023-12-14T03:43:00;23.00;;;10.27;;
64907;SDS011;69061;52.236;5.188;2023-12-14T03:45:28;26.08;;;11.65;;
64907;SDS011;69061;52.236;5.188;2023-12-14T03:47:54;19.23;;;10.07;;
64907;SDS011;69061;52.236;5.188;2023-12-14T03:50:22;23.20;;;10.40;;
64907;SDS011;69061;52.236;5.188;2023-12-14T03:52:49;20.83;;;9.70;;
64907;SDS011;69061;52.236;5.188;2023-12-14T03:55:15;21.45;;;9.80;;
64907;SDS011;69061;52.236;5.188;2023-12-14T03:57:42;23.42;;;9.65;;
64907;SDS011;69061;52.236;5.188;2023-12-14T04:00:09;18.08;;;8.43;;
64907;SDS011;69061;52.236;5.188;2023-12-14T04:02:37;25.75;;;9.88;;
64907;SDS011;69061;52.236;5.188;2023-12-14T04:05:04;17.65;;;9.05;;
64907;SDS011;69061;52.236;5.188;2023-12-14T04:07:33;17.75;;;9.32;;
64907;SDS011;69061;52.236;5.188;2023-12-14T04:10:01;19.92;;;10.27;;
64907;SDS011;69061;52.236;5.188;2023-12-14T04:12:27;17.73;;;8.82;;
64907;SDS011;69061;52.236;5.188;2023-12-14T04:14:54;19.13;;;8.95;;
64907;SDS011;69061;52.236;5.188;2023-12-14T04:17:20;14.68;;;8.73;;
64907;SDS011;69061;52.236;5.188;2023-12-14T04:19:47;22.20;;;10.75;;
64907;SDS011;69061;52.236;5.188;2023-12-14T04:22:14;18.83;;;8.85;;
64907;SDS011;69061;52.236;5.188;2023-12-14T04:24:41;25.48;;;9.82;;
64907;SDS011;69061;52.236;5.188;2023-12-14T04:27:08;16.80;;;8.43;;
64907;SDS011;69061;52.236;5.188;2023-12-14T04:29:34;21.15;;;8.60;;
64907;SDS011;69061;52.236;5.188;2023-12-14T04:32:01;14.05;;;7.68;;
64907;SDS011;69061;52.236;5.188;2023-12-14T04:34:28;14.63;;;7.47;;
64907;SDS011;69061;52.236;5.188;2023-12-14T04:36:54;16.45;;;8.35;;
64907;SDS011;69061;52.236;5.188;2023-12-14T04:39:22;15.80;;;8.75;;
64907;SDS011;69061;52.236;5.188;2023-12-14T04:41:51;13.40;;;8.32;;
64907;SDS011;69061;52.236;5.188;2023-12-14T04:44:18;35.33;;;9.07;;
64907;SDS011;69061;52.236;5.188;2023-12-14T04:46:46;13.70;;;8.18;;
64907;SDS011;69061;52.236;5.188;2023-12-14T04:49:13;17.08;;;8.57;;
64907;SDS011;69061;52.236;5.188;2023-12-14T04:51:39;15.77;;;8.27;;
64907;SDS011;69061;52.236;5.188;2023-12-14T04:54:06;19.75;;;9.32;;
64907;SDS011;69061;52.236;5.188;2023-12-14T04:56:33;12.10;;;7.63;;
64907;SDS011;69061;52.236;5.188;2023-12-14T04:59:02;14.80;;;8.30;;
64907;SDS011;69061;52.236;5.188;2023-12-14T05:01:28;18.42;;;8.27;;
64907;SDS011;69061;52.236;5.188;2023-12-14T05:03:55;14.93;;;8.38;;
64907;SDS011;69061;52.236;5.188;2023-12-14T05:06:21;19.80;;;9.05;;
64907;SDS011;69061;52.236;5.188;2023-12-14T05:08:48;16.52;;;9.70;;
64907;SDS011;69061;52.236;5.188;2023-12-14T05:11:15;18.13;;;8.88;;
64907;SDS011;69061;52.236;5.188;2023-12-14T05:13:41;18.25;;;7.57;;
64907;SDS011;69061;52.236;5.188;2023-12-14T05:16:13;17.05;;;8.95;;
64907;SDS011;69061;52.236;5.188;2023-12-14T05:18:40;17.65;;;7.95;;
64907;SDS011;69061;52.236;5.188;2023-12-14T05:21:07;15.13;;;7.50;;
64907;SDS011;69061;52.236;5.188;2023-12-14T05:23:33;13.57;;;7.50;;
64907;SDS011;69061;52.236;5.188;2023-12-14T05:26:01;17.98;;;9.73;;
64907;SDS011;69061;52.236;5.188;2023-12-14T05:28:28;16.92;;;9.57;;
64907;SDS011;69061;52.236;5.188;2023-12-14T05:30:55;16.50;;;8.65;;
64907;SDS011;69061;52.236;5.188;2023-12-14T05:33:23;26.05;;;7.85;;
64907;SDS011;69061;52.236;5.188;2023-12-14T05:35:49;14.43;;;8.10;;
64907;SDS011;69061;52.236;5.188;2023-12-14T05:38:16;15.32;;;7.25;;
64907;SDS011;69061;52.236;5.188;2023-12-14T05:40:43;15.93;;;7.97;;
64907;SDS011;69061;52.236;5.188;2023-12-14T05:43:10;15.15;;;8.60;;
64907;SDS011;69061;52.236;5.188;2023-12-14T05:45:36;14.30;;;8.02;;
64907;SDS011;69061;52.236;5.188;2023-12-14T05:48:03;12.15;;;7.22;;
64907;SDS011;69061;52.236;5.188;2023-12-14T05:50:32;14.13;;;8.02;;
64907;SDS011;69061;52.236;5.188;2023-12-14T05:52:58;16.13;;;8.60;;
64907;SDS011;69061;52.236;5.188;2023-12-14T05:55:25;16.88;;;8.13;;
64907;SDS011;69061;52.236;5.188;2023-12-14T05:57:51;14.02;;;8.80;;
64907;SDS011;69061;52.236;5.188;2023-12-14T06:00:20;14.73;;;8.13;;
64907;SDS011;69061;52.236;5.188;2023-12-14T06:02:48;18.90;;;9.18;;
64907;SDS011;69061;52.236;5.188;2023-12-14T06:05:14;18.52;;;9.48;;
64907;SDS011;69061;52.236;5.188;2023-12-14T06:07:43;14.57;;;8.63;;
64907;SDS011;69061;52.236;5.188;2023-12-14T06:10:10;15.45;;;9.45;;
64907;SDS011;69061;52.236;5.188;2023-12-14T06:12:37;17.45;;;9.77;;
64907;SDS011;69061;52.236;5.188;2023-12-14T06:15:04;19.63;;;9.05;;
64907;SDS011;69061;52.236;5.188;2023-12-14T06:17:32;20.20;;;10.48;;
64907;SDS011;69061;52.236;5.188;2023-12-14T06:19:59;17.98;;;9.15;;
64907;SDS011;69061;52.236;5.188;2023-12-14T06:22:25;20.38;;;9.20;;
64907;SDS011;69061;52.236;5.188;2023-12-14T06:24:54;14.52;;;8.23;;
64907;SDS011;69061;52.236;5.188;2023-12-14T06:27:20;17.55;;;8.50;;
64907;SDS011;69061;52.236;5.188;2023-12-14T06:29:51;18.05;;;9.32;;
64907;SDS011;69061;52.236;5.188;2023-12-14T06:32:17;15.75;;;9.05;;
64907;SDS011;69061;52.236;5.188;2023-12-14T06:34:44;14.32;;;8.50;;
64907;SDS011;69061;52.236;5.188;2023-12-14T06:37:11;17.45;;;10.23;;
64907;SDS011;69061;52.236;5.188;2023-12-14T06:39:38;19.05;;;10.70;;
64907;SDS011;69061;52.236;5.188;2023-12-14T06:42:09;17.30;;;9.90;;
64907;SDS011;69061;52.236;5.188;2023-12-14T06:44:37;12.77;;;7.75;;
64907;SDS011;69061;52.236;5.188;2023-12-14T06:47:03;18.48;;;8.60;;
64907;SDS011;69061;52.236;5.188;2023-12-14T06:49:31;13.50;;;8.63;;
64907;SDS011;69061;52.236;5.188;2023-12-14T06:51:57;19.27;;;9.30;;
64907;SDS011;69061;52.236;5.188;2023-12-14T06:54:24;14.32;;;8.80;;
64907;SDS011;69061;52.236;5.188;2023-12-14T06:56:50;21.23;;;9.23;;
64907;SDS011;69061;52.236;5.188;2023-12-14T06:59:19;15.95;;;9.05;;
64907;SDS011;69061;52.236;5.188;2023-12-14T07:01:45;13.15;;;7.07;;
64907;SDS011;69061;52.236;5.188;2023-12-14T07:04:12;14.23;;;7.45;;
64907;SDS011;69061;52.236;5.188;2023-12-14T07:06:39;13.68;;;7.85;;
64907;SDS011;69061;52.236;5.188;2023-12-14T07:09:05;14.25;;;8.35;;
64907;SDS011;69061;52.236;5.188;2023-12-14T07:11:32;15.50;;;7.82;;
64907;SDS011;69061;52.236;5.188;2023-12-14T07:13:59;13.07;;;7.10;;
64907;SDS011;69061;52.236;5.188;2023-12-14T07:16:27;11.32;;;7.68;;
64907;SDS011;69061;52.236;5.188;2023-12-14T07:18:54;13.40;;;8.65;;
64907;SDS011;69061;52.236;5.188;2023-12-14T07:21:21;10.88;;;7.50;;
64907;SDS011;69061;52.236;5.188;2023-12-14T07:23:48;12.40;;;7.88;;
64907;SDS011;69061;52.236;5.188;2023-12-14T07:26:14;15.38;;;8.80;;
64907;SDS011;69061;52.236;5.188;2023-12-14T07:28:41;13.65;;;9.00;;
64907;SDS011;69061;52.236;5.188;2023-12-14T07:31:07;14.52;;;8.73;;
64907;SDS011;69061;52.236;5.188;2023-12-14T07:33:36;16.95;;;7.82;;
64907;SDS011;69061;52.236;5.188;2023-12-14T07:36:03;13.30;;;8.70;;
64907;SDS011;69061;52.236;5.188;2023-12-14T07:38:30;15.98;;;8.45;;
64907;SDS011;69061;52.236;5.188;2023-12-14T07:40:57;17.00;;;9.48;;
64907;SDS011;69061;52.236;5.188;2023-12-14T07:43:24;12.18;;;8.02;;
64907;SDS011;69061;52.236;5.188;2023-12-14T07:45:50;13.18;;;8.07;;
64907;SDS011;69061;52.236;5.188;2023-12-14T07:48:17;15.65;;;8.48;;
64907;SDS011;69061;52.236;5.188;2023-12-14T07:50:45;12.85;;;7.97;;
64907;SDS011;69061;52.236;5.188;2023-12-14T07:53:13;14.02;;;8.32;;
64907;SDS011;69061;52.236;5.188;2023-12-14T07:55:40;14.15;;;7.70;;
64907;SDS011;69061;52.236;5.188;2023-12-14T07:58:07;15.85;;;8.00;;
64907;SDS011;69061;52.236;5.188;2023-12-14T08:00:35;13.80;;;8.80;;
64907;SDS011;69061;52.236;5.188;2023-12-14T08:03:01;11.18;;;6.75;;
64907;SDS011;69061;52.236;5.188;2023-12-14T08:05:28;10.70;;;7.18;;
64907;SDS011;69061;52.236;5.188;2023-12-14T08:07:56;12.02;;;7.45;;
64907;SDS011;69061;52.236;5.188;2023-12-14T08:10:24;15.10;;;6.88;;
64907;SDS011;69061;52.236;5.188;2023-12-14T08:12:51;14.52;;;7.20;;
64907;SDS011;69061;52.236;5.188;2023-12-14T08:15:18;9.57;;;6.68;;
64907;SDS011;69061;52.236;5.188;2023-12-14T08:17:44;10.75;;;7.45;;
64907;SDS011;69061;52.236;5.188;2023-12-14T08:20:11;13.15;;;8.57;;
64907;SDS011;69061;52.236;5.188;2023-12-14T08:22:38;13.27;;;8.38;;
64907;SDS011;69061;52.236;5.188;2023-12-14T08:25:10;13.70;;;7.95;;
64907;SDS011;69061;52.236;5.188;2023-12-14T08:27:38;11.82;;;6.85;;
64907;SDS011;69061;52.236;5.188;2023-12-14T08:30:05;11.40;;;7.55;;
64907;SDS011;69061;52.236;5.188;2023-12-14T08:32:33;14.95;;;8.43;;
64907;SDS011;69061;52.236;5.188;2023-12-14T08:35:00;11.90;;;8.02;;
64907;SDS011;69061;52.236;5.188;2023-12-14T08:37:26;14.65;;;8.35;;
64907;SDS011;69061;52.236;5.188;2023-12-14T08:39:53;12.65;;;8.38;;
64907;SDS011;69061;52.236;5.188;2023-12-14T08:42:21;10.60;;;7.07;;
64907;SDS011;69061;52.236;5.188;2023-12-14T08:44:48;14.45;;;7.65;;
64907;SDS011;69061;52.236;5.188;2023-12-14T08:47:15;13.38;;;8.10;;
64907;SDS011;69061;52.236;5.188;2023-12-14T08:49:41;13.23;;;7.97;;
64907;SDS011;69061;52.236;5.188;2023-12-14T08:52:08;10.98;;;7.20;;
64907;SDS011;69061;52.236;5.188;2023-12-14T08:54:36;21.15;;;8.45;;
64907;SDS011;69061;52.236;5.188;2023-12-14T08:57:03;10.13;;;7.10;;
64907;SDS011;69061;52.236;5.188;2023-12-14T08:59:31;9.98;;;6.75;;
64907;SDS011;69061;52.236;5.188;2023-12-14T09:01:58;11.88;;;7.18;;
64907;SDS011;69061;52.236;5.188;2023-12-14T09:04:25;10.90;;;6.53;;
64907;SDS011;69061;52.236;5.188;2023-12-14T09:06:52;13.63;;;6.80;;
64907;SDS011;69061;52.236;5.188;2023-12-14T09:09:18;9.10;;;6.40;;
64907;SDS011;69061;52.236;5.188;2023-12-14T09:11:45;15.75;;;7.75;;
64907;SDS011;69061;52.236;5.188;2023-12-14T09:14:12;14.52;;;7.65;;
64907;SDS011;69061;52.236;5.188;2023-12-14T09:16:42;11.80;;;7.68;;
64907;SDS011;69061;52.236;5.188;2023-12-14T09:19:09;11.57;;;7.07;;
64907;SDS011;69061;52.236;5.188;2023-12-14T09:21:35;12.25;;;7.18;;
64907;SDS011;69061;52.236;5.188;2023-12-14T09:24:02;11.48;;;6.85;;
64907;SDS011;69061;52.236;5.188;2023-12-14T09:26:29;10.43;;;6.00;;
64907;SDS011;69061;52.236;5.188;2023-12-14T09:28:56;12.45;;;7.65;;
64907;SDS011;69061;52.236;5.188;2023-12-14T09:31:23;11.93;;;6.93;;
64907;SDS011;69061;52.236;5.188;2023-12-14T09:33:51;8.60;;;5.60;;
64907;SDS011;69061;52.236;5.188;2023-12-14T09:36:18;11.95;;;6.10;;
64907;SDS011;69061;52.236;5.188;2023-12-14T09:38:47;11.55;;;6.65;;
64907;SDS011;69061;52.236;5.188;2023-12-14T09:41:13;14.65;;;6.95;;
64907;SDS011;69061;52.236;5.188;2023-12-14T09:43:40;11.43;;;6.18;;
64907;SDS011;69061;52.236;5.188;2023-12-14T09:46:07;15.45;;;6.80;;
64907;SDS011;69061;52.236;5.188;2023-12-14T09:48:34;13.07;;;6.03;;
64907;SDS011;69061;52.236;5.188;2023-12-14T09:51:02;10.15;;;6.22;;
64907;SDS011;69061;52.236;5.188;2023-12-14T09:53:29;9.40;;;6.40;;
64907;SDS011;69061;52.236;5.188;2023-12-14T09:55:56;9.98;;;6.32;;
64907;SDS011;69061;52.236;5.188;2023-12-14T09:58:23;10.75;;;6.35;;
64907;SDS011;69061;52.236;5.188;2023-12-14T10:00:49;10.50;;;6.50;;
64907;SDS011;69061;52.236;5.188;2023-12-14T10:03:23;15.15;;;7.03;;
64907;SDS011;69061;52.236;5.188;2023-12-14T10:05:51;10.00;;;5.97;;
64907;SDS011;69061;52.236;5.188;2023-12-14T10:08:19;9.70;;;6.38;;
64907;SDS011;69061;52.236;5.188;2023-12-14T10:10:47;12.40;;;6.18;;
64907;SDS011;69061;52.236;5.188;2023-12-14T10:13:14;10.27;;;5.78;;
64907;SDS011;69061;52.236;5.188;2023-12-14T10:15:41;10.38;;;6.32;;
64907;SDS011;69061;52.236;5.188;2023-12-14T10:18:08;11.02;;;6.35;;
64907;SDS011;69061;52.236;5.188;2023-12-14T10:20:35;11.25;;;6.47;;
64907;SDS011;69061;52.236;5.188;2023-12-14T10:23:03;11.00;;;6.50;;
64907;SDS011;69061;52.236;5.188;2023-12-14T10:25:32;10.27;;;6.72;;
64907;SDS011;69061;52.236;5.188;2023-12-14T10:27:59;13.52;;;7.70;;
64907;SDS011;69061;52.236;5.188;2023-12-14T10:30:27;11.90;;;7.20;;
64907;SDS011;69061;52.236;5.188;2023-12-14T10:32:55;10.95;;;6.18;;
64907;SDS011;69061;52.236;5.188;2023-12-14T10:35:22;12.55;;;7.07;;
64907;SDS011;69061;52.236;5.188;2023-12-14T10:37:49;10.80;;;6.45;;
64907;SDS011;69061;52.236;5.188;2023-12-14T10:40:17;9.25;;;5.72;;
64907;SDS011;69061;52.236;5.188;2023-12-14T10:42:45;17.95;;;6.72;;
64907;SDS011;69061;52.236;5.188;2023-12-14T10:45:14;14.23;;;6.75;;
64907;SDS011;69061;52.236;5.188;2023-12-14T10:47:43;13.68;;;6.72;;
64907;SDS011;69061;52.236;5.188;2023-12-14T10:50:10;9.50;;;6.25;;
64907;SDS011;69061;52.236;5.188;2023-12-14T10:52:38;9.05;;;6.10;;
64907;SDS011;69061;52.236;5.188;2023-12-14T10:55:06;10.88;;;6.60;;
64907;SDS011;69061;52.236;5.188;2023-12-14T10:57:35;9.82;;;5.97;;
64907;SDS011;69061;52.236;5.188;2023-12-14T11:00:03;7.72;;;5.50;;
64907;SDS011;69061;52.236;5.188;2023-12-14T11:02:36;12.82;;;6.07;;
64907;SDS011;69061;52.236;5.188;2023-12-14T11:05:07;7.50;;;5.30;;
64907;SDS011;69061;52.236;5.188;2023-12-14T11:07:44;12.65;;;6.38;;
64907;SDS011;69061;52.236;5.188;2023-12-14T11:10:11;19.15;;;6.78;;
64907;SDS011;69061;52.236;5.188;2023-12-14T11:12:38;11.68;;;6.88;;
64907;SDS011;69061;52.236;5.188;2023-12-14T11:15:19;14.13;;;6.57;;
64907;SDS011;69061;52.236;5.188;2023-12-14T11:20:50;11.13;;;7.22;;
64907;SDS011;69061;52.236;5.188;2023-12-14T11:23:26;10.50;;;6.22;;
64907;SDS011;69061;52.236;5.188;2023-12-14T11:28:29;12.57;;;7.10;;
64907;SDS011;69061;52.236;5.188;2023-12-14T11:30:58;13.48;;;6.60;;
64907;SDS011;69061;52.236;5.188;2023-12-14T11:33:25;13.15;;;7.70;;
64907;SDS011;69061;52.236;5.188;2023-12-14T11:35:54;10.57;;;7.28;;
64907;SDS011;69061;52.236;5.188;2023-12-14T11:38:21;13.65;;;7.50;;
64907;SDS011;69061;52.236;5.188;2023-12-14T11:40:49;10.13;;;6.05;;
64907;SDS011;69061;52.236;5.188;2023-12-14T11:43:16;13.32;;;7.60;;
64907;SDS011;69061;52.236;5.188;2023-12-14T11:45:45;13.88;;;6.90;;
64907;SDS011;69061;52.236;5.188;2023-12-14T11:48:13;13.57;;;7.78;;
64907;SDS011;69061;52.236;5.188;2023-12-14T11:50:40;11.18;;;6.78;;
64907;SDS011;69061;52.236;5.188;2023-12-14T11:53:09;15.82;;;7.78;;
64907;SDS011;69061;52.236;5.188;2023-12-14T11:55:36;12.27;;;6.75;;
64907;SDS011;69061;52.236;5.188;2023-12-14T11:58:04;13.02;;;6.90;;
64907;SDS011;69061;52.236;5.188;2023-12-14T12:00:33;11.18;;;7.07;;
64907;SDS011;69061;52.236;5.188;2023-12-14T12:03:09;12.40;;;8.05;;
64907;SDS011;69061;52.236;5.188;2023-12-14T12:05:38;15.27;;;7.70;;
64907;SDS011;69061;52.236;5.188;2023-12-14T12:08:07;11.63;;;6.63;;
64907;SDS011;69061;52.236;5.188;2023-12-14T12:10:34;13.85;;;7.78;;
64907;SDS011;69061;52.236;5.188;2023-12-14T12:13:02;12.18;;;7.38;;
64907;SDS011;69061;52.236;5.188;2023-12-14T12:15:31;14.52;;;7.88;;
64907;SDS011;69061;52.236;5.188;2023-12-14T12:18:02;16.23;;;6.55;;
64907;SDS011;69061;52.236;5.188;2023-12-14T12:20:29;13.98;;;7.40;;
64907;SDS011;69061;52.236;5.188;2023-12-14T12:22:58;12.02;;;7.30;;
64907;SDS011;69061;52.236;5.188;2023-12-14T12:25:26;11.60;;;7.20;;
64907;SDS011;69061;52.236;5.188;2023-12-14T12:27:53;13.05;;;7.15;;
64907;SDS011;69061;52.236;5.188;2023-12-14T12:30:20;17.90;;;8.82;;
64907;SDS011;69061;52.236;5.188;2023-12-14T12:32:47;17.15;;;8.40;;
64907;SDS011;69061;52.236;5.188;2023-12-14T12:35:14;20.83;;;8.82;;
64907;SDS011;69061;52.236;5.188;2023-12-14T12:37:41;21.02;;;9.98;;
64907;SDS011;69061;52.236;5.188;2023-12-14T12:40:10;17.02;;;10.10;;
64907;SDS011;69061;52.236;5.188;2023-12-14T12:42:37;17.70;;;9.02;;
64907;SDS011;69061;52.236;5.188;2023-12-14T12:45:05;16.73;;;9.50;;
64907;SDS011;69061;52.236;5.188;2023-12-14T12:47:32;17.67;;;9.57;;
64907;SDS011;69061;52.236;5.188;2023-12-14T12:50:00;18.70;;;9.63;;
64907;SDS011;69061;52.236;5.188;2023-12-14T12:52:27;16.77;;;10.27;;
64907;SDS011;69061;52.236;5.188;2023-12-14T12:54:54;13.68;;;8.77;;
64907;SDS011;69061;52.236;5.188;2023-12-14T12:57:22;21.10;;;10.90;;
64907;SDS011;69061;52.236;5.188;2023-12-14T12:59:49;15.63;;;9.20;;
64907;SDS011;69061;52.236;5.188;2023-12-14T13:02:15;22.70;;;9.75;;
64907;SDS011;69061;52.236;5.188;2023-12-14T13:04:45;22.77;;;10.98;;
64907;SDS011;69061;52.236;5.188;2023-12-14T13:07:12;21.50;;;10.65;;
64907;SDS011;69061;52.236;5.188;2023-12-14T13:09:38;17.50;;;10.85;;
64907;SDS011;69061;52.236;5.188;2023-12-14T13:12:08;21.77;;;10.32;;
64907;SDS011;69061;52.236;5.188;2023-12-14T13:14:36;18.50;;;11.25;;
64907;SDS011;69061;52.236;5.188;2023-12-14T13:17:03;23.67;;;12.45;;
64907;SDS011;69061;52.236;5.188;2023-12-14T13:19:30;20.25;;;10.05;;
64907;SDS011;69061;52.236;5.188;2023-12-14T13:21:56;20.75;;;11.05;;
64907;SDS011;69061;52.236;5.188;2023-12-14T13:24:24;18.90;;;11.10;;
64907;SDS011;69061;52.236;5.188;2023-12-14T13:26:51;19.40;;;11.13;;
64907;SDS011;69061;52.236;5.188;2023-12-14T13:29:17;21.73;;;12.63;;
64907;SDS011;69061;52.236;5.188;2023-12-14T13:31:47;24.02;;;10.75;;
64907;SDS011;69061;52.236;5.188;2023-12-14T13:34:14;23.65;;;11.68;;
64907;SDS011;69061;52.236;5.188;2023-12-14T13:36:40;19.27;;;11.70;;
64907;SDS011;69061;52.236;5.188;2023-12-14T13:39:07;23.63;;;13.55;;
64907;SDS011;69061;52.236;5.188;2023-12-14T13:41:34;19.88;;;10.50;;
64907;SDS011;69061;52.236;5.188;2023-12-14T13:44:01;24.67;;;12.38;;
64907;SDS011;69061;52.236;5.188;2023-12-14T13:46:28;20.52;;;12.23;;
64907;SDS011;69061;52.236;5.188;2023-12-14T13:48:56;18.58;;;11.65;;
64907;SDS011;69061;52.236;5.188;2023-12-14T13:51:22;21.15;;;10.80;;
64907;SDS011;69061;52.236;5.188;2023-12-14T13:53:49;20.50;;;10.57;;
64907;SDS011;69061;52.236;5.188;2023-12-14T13:56:16;23.88;;;10.50;;
64907;SDS011;69061;52.236;5.188;2023-12-14T13:58:43;20.85;;;11.23;;
64907;SDS011;69061;52.236;5.188;2023-12-14T14:01:09;22.73;;;11.50;;
64907;SDS011;69061;52.236;5.188;2023-12-14T14:03:36;17.48;;;10.15;;
64907;SDS011;69061;52.236;5.188;2023-12-14T14:06:06;19.92;;;10.35;;
64907;SDS011;69061;52.236;5.188;2023-12-14T14:08:32;20.83;;;11.13;;
64907;SDS011;69061;52.236;5.188;2023-12-14T14:11:00;20.00;;;10.82;;
64907;SDS011;69061;52.236;5.188;2023-12-14T14:13:27;19.35;;;10.52;;
64907;SDS011;69061;52.236;5.188;2023-12-14T14:15:54;21.73;;;11.90;;
64907;SDS011;69061;52.236;5.188;2023-12-14T14:18:20;22.67;;;11.85;;
64907;SDS011;69061;52.236;5.188;2023-12-14T14:20:47;19.00;;;10.82;;
64907;SDS011;69061;52.236;5.188;2023-12-14T14:23:15;28.70;;;11.93;;
64907;SDS011;69061;52.236;5.188;2023-12-14T14:25:42;21.23;;;11.45;;
64907;SDS011;69061;52.236;5.188;2023-12-14T14:28:09;20.75;;;11.02;;
64907;SDS011;69061;52.236;5.188;2023-12-14T14:30:35;19.90;;;11.65;;
64907;SDS011;69061;52.236;5.188;2023-12-14T14:33:02;24.25;;;12.15;;
64907;SDS011;69061;52.236;5.188;2023-12-14T14:35:29;20.05;;;10.65;;
64907;SDS011;69061;52.236;5.188;2023-12-14T14:37:58;21.52;;;12.30;;